createdAt,value
2022-12-08T00:02:07.327Z,100732.00
2022-12-08T00:04:56.096Z,100734.75
2022-12-08T00:07:41.205Z,100725.28
2022-12-08T00:10:40.233Z,100724.97
2022-12-08T00:12:59.210Z,100722.09
2022-12-08T00:15:28.942Z,100708.16
2022-12-08T00:17:57.547Z,100705.63
2022-12-08T00:20:26.167Z,100700.88
2022-12-08T00:22:54.754Z,100697.66
2022-12-08T00:25:23.409Z,100695.47
2022-12-08T00:27:52.037Z,100682.78
2022-12-08T00:30:20.891Z,100689.06
2022-12-08T00:32:50.915Z,100695.44
2022-12-08T00:35:19.528Z,100687.28
2022-12-08T00:37:49.022Z,100691.31
2022-12-08T00:40:17.695Z,100689.94
2022-12-08T00:42:46.281Z,100684.81
2022-12-08T00:45:15.027Z,100683.69
2022-12-08T00:47:43.663Z,100683.66
2022-12-08T00:50:14.012Z,100675.31
2022-12-08T00:52:42.680Z,100678.88
2022-12-08T00:55:11.346Z,100679.47
2022-12-08T00:57:39.964Z,100673.91
2022-12-08T01:00:09.658Z,100671.59
2022-12-08T01:02:38.279Z,100666.22
2022-12-08T01:05:07.816Z,100667.72
2022-12-08T01:07:37.846Z,100665.31
2022-12-08T01:10:07.862Z,100667.97
2022-12-08T01:12:36.528Z,100667.38
2022-12-08T01:15:05.503Z,100665.94
2022-12-08T01:17:34.151Z,100665.84
2022-12-08T01:20:03.639Z,100661.63
2022-12-08T01:22:32.443Z,100661.38
2022-12-08T01:25:02.123Z,100665.59
2022-12-08T01:27:30.494Z,100664.66
2022-12-08T01:29:58.906Z,100665.53
2022-12-08T01:32:27.291Z,100662.44
2022-12-08T01:34:55.625Z,100660.09
2022-12-08T01:37:24.053Z,100659.41
2022-12-08T01:39:52.370Z,100660.16
2022-12-08T01:42:24.142Z,100664.59
2022-12-08T01:45:00.849Z,100657.09
2022-12-08T01:47:37.346Z,100659.00
2022-12-08T01:50:10.935Z,100653.69
2022-12-08T01:52:44.115Z,100642.72
2022-12-08T01:55:20.357Z,100643.34
2022-12-08T01:57:54.012Z,100634.50
2022-12-08T02:00:23.969Z,100641.69
2022-12-08T02:02:58.494Z,100638.19
2022-12-08T02:05:30.998Z,100644.03
2022-12-08T02:08:04.386Z,100643.06
2022-12-08T02:10:37.070Z,100631.25
2022-12-08T02:13:09.745Z,100634.22
2022-12-08T02:15:47.186Z,100626.81
2022-12-08T02:18:35.421Z,100620.16
2022-12-08T02:21:10.133Z,100614.53
2022-12-08T02:23:50.702Z,100620.84
2022-12-08T02:27:16.138Z,100614.66
2022-12-08T02:30:26.064Z,100612.97
2022-12-08T02:33:54.841Z,100608.50
2022-12-08T02:36:28.278Z,100612.28
2022-12-08T02:39:04.614Z,100605.28
2022-12-08T02:41:43.152Z,100600.34
2022-12-08T02:44:19.889Z,100595.19
2022-12-08T02:46:53.714Z,100584.66
2022-12-08T02:49:28.636Z,100581.50
2022-12-08T02:52:07.927Z,100584.78
2022-12-08T02:54:37.558Z,100578.94
2022-12-08T02:57:30.589Z,100575.38
2022-12-08T03:00:08.467Z,100567.78
2022-12-08T03:02:53.845Z,100569.13
2022-12-08T03:05:59.007Z,100568.47
2022-12-08T03:08:35.489Z,100555.84
2022-12-08T03:11:11.015Z,100564.69
2022-12-08T03:13:45.813Z,100563.13
2022-12-08T03:16:18.809Z,100565.97
2022-12-08T03:18:52.203Z,100560.31
2022-12-08T03:21:23.328Z,100558.19
2022-12-08T03:23:56.846Z,100551.25
2022-12-08T03:26:31.750Z,100547.88
2022-12-08T03:29:00.537Z,100544.91
2022-12-08T03:31:35.034Z,100540.53
2022-12-08T03:34:06.299Z,100535.53
2022-12-08T03:36:36.227Z,100536.41
2022-12-08T03:39:05.164Z,100536.88
2022-12-08T03:41:33.578Z,100533.56
2022-12-08T03:44:01.905Z,100531.81
2022-12-08T03:46:32.314Z,100530.47
2022-12-08T03:49:00.666Z,100526.25
2022-12-08T03:51:29.107Z,100520.75
2022-12-08T03:53:58.809Z,100513.28
2022-12-08T03:56:30.989Z,100502.53
2022-12-08T03:59:00.205Z,100505.09
2022-12-08T04:01:28.824Z,100503.41
2022-12-08T04:03:57.512Z,100504.91
2022-12-08T04:06:26.448Z,100504.50
2022-12-08T04:08:54.793Z,100497.53
2022-12-08T04:11:24.615Z,100499.38
2022-12-08T04:13:52.973Z,100497.34
2022-12-08T04:16:24.622Z,100493.56
2022-12-08T04:18:53.423Z,100479.16
2022-12-08T04:21:22.028Z,100489.44
2022-12-08T04:23:52.894Z,100484.25
2022-12-08T04:26:24.716Z,100487.41
2022-12-08T04:28:53.154Z,100482.50
2022-12-08T04:31:21.570Z,100474.50
2022-12-08T04:33:49.986Z,100480.31
2022-12-08T04:36:18.325Z,100476.00
2022-12-08T04:38:46.898Z,100472.16
2022-12-08T04:41:15.293Z,100475.22
2022-12-08T04:43:45.576Z,100479.31
2022-12-08T04:46:14.241Z,100471.84
2022-12-08T04:48:43.019Z,100475.72
2022-12-08T04:51:17.953Z,100465.41
2022-12-08T04:53:47.422Z,100473.44
2022-12-08T04:56:17.960Z,100471.63
2022-12-08T04:58:48.365Z,100461.47
2022-12-08T05:01:16.918Z,100460.63
2022-12-08T05:03:45.291Z,100463.31
2022-12-08T05:06:15.348Z,100471.09
2022-12-08T05:08:44.600Z,100468.19
2022-12-08T05:11:14.556Z,100473.00
2022-12-08T05:13:42.911Z,100461.41
2022-12-08T05:16:15.593Z,100465.50
2022-12-08T05:18:44.833Z,100458.50
2022-12-08T05:21:13.579Z,100457.22
2022-12-08T05:23:41.984Z,100461.56
2022-12-08T05:26:10.373Z,100459.75
2022-12-08T05:28:41.785Z,100460.44
2022-12-08T05:31:12.046Z,100450.28
2022-12-08T05:33:40.496Z,100460.44
2022-12-08T05:36:10.184Z,100452.69
2022-12-08T05:38:38.743Z,100460.63
2022-12-08T05:41:08.534Z,100447.44
2022-12-08T05:43:37.523Z,100449.19
2022-12-08T05:46:06.304Z,100448.75
2022-12-08T05:48:36.781Z,100441.88
2022-12-08T05:51:06.084Z,100443.94
2022-12-08T05:53:34.492Z,100447.72
2022-12-08T05:56:02.824Z,100439.38
2022-12-08T05:58:31.199Z,100426.44
2022-12-08T06:00:59.536Z,100427.34
2022-12-08T06:03:27.954Z,100429.56
2022-12-08T06:05:57.901Z,100425.59
2022-12-08T06:08:26.299Z,100433.94
2022-12-08T06:10:54.783Z,100426.75
2022-12-08T06:13:23.116Z,100422.28
2022-12-08T06:15:51.476Z,100424.06
2022-12-08T06:18:19.837Z,100420.16
2022-12-08T06:20:48.250Z,100421.00
2022-12-08T06:23:18.068Z,100417.00
2022-12-08T06:25:46.453Z,100418.03
2022-12-08T06:28:14.785Z,100418.13
2022-12-08T06:30:43.148Z,100421.16
2022-12-08T06:33:11.511Z,100423.84
2022-12-08T06:35:39.892Z,100426.25
2022-12-08T06:38:08.239Z,100418.59
2022-12-08T06:40:37.981Z,100434.41
2022-12-08T06:43:06.358Z,100430.66
2022-12-08T06:45:34.759Z,100426.47
2022-12-08T06:48:03.735Z,100427.81
2022-12-08T06:50:33.420Z,100434.22
2022-12-08T06:53:05.453Z,100435.09
2022-12-08T06:55:57.770Z,100427.75
2022-12-08T06:58:24.369Z,100422.78
2022-12-08T07:00:52.846Z,100422.53
2022-12-08T07:03:21.228Z,100429.28
2022-12-08T07:05:49.745Z,100430.22
2022-12-08T07:08:18.154Z,100432.88
2022-12-08T07:10:46.618Z,100434.81
2022-12-08T07:13:14.968Z,100441.00
2022-12-08T07:15:44.764Z,100449.22
2022-12-08T07:18:13.274Z,100436.78
2022-12-08T07:20:41.612Z,100441.19
2022-12-08T07:23:09.922Z,100449.78
2022-12-08T07:25:38.416Z,100444.13
2022-12-08T07:28:11.691Z,100453.75
2022-12-08T07:30:40.340Z,100449.66
2022-12-08T07:33:10.039Z,100453.13
2022-12-08T07:35:38.423Z,100442.25
2022-12-08T07:38:06.790Z,100454.13
2022-12-08T07:40:35.253Z,100442.69
2022-12-08T07:43:03.587Z,100446.31
2022-12-08T07:45:32.099Z,100451.25
2022-12-08T07:48:00.970Z,100444.34
2022-12-08T07:50:30.691Z,100455.94
2022-12-08T07:52:59.036Z,100451.16
2022-12-08T07:55:27.546Z,100460.91
2022-12-08T07:57:56.240Z,100456.66
2022-12-08T08:00:25.192Z,100457.78
2022-12-08T08:02:54.060Z,100444.84
2022-12-08T08:05:23.561Z,100448.88
2022-12-08T08:07:53.398Z,100434.69
2022-12-08T08:10:21.834Z,100448.50
2022-12-08T08:12:50.169Z,100445.28
2022-12-08T08:15:19.371Z,100443.69
2022-12-08T08:17:52.047Z,100444.63
2022-12-08T08:20:22.356Z,100449.22
2022-12-08T08:22:53.146Z,100451.56
2022-12-08T08:25:23.504Z,100442.19
2022-12-08T08:27:52.113Z,100448.31
2022-12-08T08:30:21.227Z,100440.41
2022-12-08T08:32:50.576Z,100443.16
2022-12-08T08:35:19.369Z,100449.34
2022-12-08T08:37:49.411Z,100453.19
2022-12-08T08:40:19.711Z,100449.22
2022-12-08T08:42:48.330Z,100448.63
2022-12-08T08:45:17.066Z,100452.53
2022-12-08T08:47:45.431Z,100458.53
2022-12-08T08:50:13.969Z,100453.59
2022-12-08T08:52:42.626Z,100450.00
2022-12-08T08:55:11.463Z,100454.53
2022-12-08T08:57:41.292Z,100454.66
2022-12-08T09:00:11.569Z,100450.31
2022-12-08T09:02:40.568Z,100454.50
2022-12-08T09:05:09.920Z,100455.53
2022-12-08T09:07:38.739Z,100443.81
2022-12-08T09:10:09.321Z,100444.75
2022-12-08T09:12:37.896Z,100448.59
2022-12-08T09:15:08.897Z,100442.00
2022-12-08T09:17:38.258Z,100439.53
2022-12-08T09:20:08.650Z,100439.66
2022-12-08T09:22:37.267Z,100438.53
2022-12-08T09:25:06.399Z,100441.34
2022-12-08T09:27:34.948Z,100445.09
2022-12-08T09:30:03.618Z,100449.31
2022-12-08T09:32:33.533Z,100449.63
2022-12-08T09:35:02.319Z,100446.41
2022-12-08T09:37:30.687Z,100450.38
2022-12-08T09:39:59.117Z,100451.50
2022-12-08T09:42:39.543Z,100453.88
2022-12-08T09:45:13.001Z,100454.84
2022-12-08T09:47:46.901Z,100442.81
2022-12-08T09:50:20.836Z,100449.69
2022-12-08T09:53:01.694Z,100443.47
2022-12-08T09:55:41.931Z,100441.09
2022-12-08T09:58:22.526Z,100435.56
2022-12-08T10:00:51.132Z,100442.34
2022-12-08T10:03:31.187Z,100440.94
2022-12-08T10:06:08.838Z,100444.06
2022-12-08T10:08:49.137Z,100442.22
2022-12-08T10:11:25.505Z,100439.84
2022-12-08T10:14:00.441Z,100435.94
2022-12-08T10:16:35.711Z,100438.81
2022-12-08T10:19:16.175Z,100435.31
2022-12-08T10:21:44.860Z,100425.03
2022-12-08T10:24:23.511Z,100428.72
2022-12-08T10:26:52.087Z,100419.69
2022-12-08T10:29:20.445Z,100427.31
2022-12-08T10:31:48.879Z,100418.56
2022-12-08T10:34:23.196Z,100420.03
2022-12-08T10:36:54.008Z,100413.22
2022-12-08T10:39:46.970Z,100410.75
2022-12-08T10:42:22.144Z,100412.50
2022-12-08T10:45:01.851Z,100414.13
2022-12-08T10:47:36.282Z,100415.69
2022-12-08T10:50:19.358Z,100412.16
2022-12-08T10:52:55.536Z,100406.31
2022-12-08T10:55:25.262Z,100394.09
2022-12-08T10:57:53.740Z,100402.66
2022-12-08T11:00:26.103Z,100401.97
2022-12-08T11:02:59.570Z,100401.09
2022-12-08T11:05:34.535Z,100399.66
2022-12-08T11:08:04.122Z,100400.59
2022-12-08T11:10:36.894Z,100390.38
2022-12-08T11:13:08.352Z,100391.19
2022-12-08T11:15:41.508Z,100392.47
2022-12-08T11:18:27.017Z,100386.72
2022-12-08T11:21:06.965Z,100389.28
2022-12-08T11:23:38.344Z,100381.31
2022-12-08T11:26:21.492Z,100385.03
2022-12-08T11:28:50.128Z,100373.28
2022-12-08T11:31:31.392Z,100378.06
2022-12-08T11:34:00.064Z,100376.72
2022-12-08T11:36:34.668Z,100370.91
2022-12-08T11:39:05.749Z,100368.38
2022-12-08T11:41:38.972Z,100363.94
2022-12-08T11:44:22.789Z,100368.69
2022-12-08T11:46:57.023Z,100371.38
2022-12-08T11:49:37.837Z,100368.75
2022-12-08T11:52:19.592Z,100358.81
2022-12-08T11:54:53.057Z,100359.66
2022-12-08T11:57:24.242Z,100363.19
2022-12-08T11:59:55.593Z,100360.38
2022-12-08T12:02:27.425Z,100358.13
2022-12-08T12:05:02.214Z,100353.94
2022-12-08T12:07:56.727Z,100352.84
2022-12-08T12:10:55.130Z,100357.72
2022-12-08T12:13:41.717Z,100352.59
2022-12-08T12:16:43.337Z,100363.56
2022-12-08T12:19:15.732Z,100353.50
2022-12-08T12:21:48.102Z,100348.88
2022-12-08T12:24:26.105Z,100345.69
2022-12-08T12:27:07.799Z,100351.59
2022-12-08T12:29:39.588Z,100354.22
2022-12-08T12:32:10.986Z,100355.13
2022-12-08T12:34:50.189Z,100350.88
2022-12-08T12:37:21.675Z,100348.38
2022-12-08T12:39:59.162Z,100354.03
2022-12-08T12:42:43.158Z,100353.66
2022-12-08T12:45:27.541Z,100348.97
2022-12-08T12:48:23.926Z,100348.72
2022-12-08T12:50:55.259Z,100349.13
2022-12-08T12:53:50.276Z,100348.47
2022-12-08T12:56:52.047Z,100342.41
2022-12-08T12:59:36.509Z,100343.63
2022-12-08T13:02:17.365Z,100340.03
2022-12-08T13:04:54.709Z,100340.50
2022-12-08T13:07:26.071Z,100338.44
2022-12-08T13:09:59.996Z,100340.75
2022-12-08T13:12:30.454Z,100343.50
2022-12-08T13:15:06.028Z,100336.69
2022-12-08T13:17:38.302Z,100341.81
2022-12-08T13:20:18.933Z,100351.22
2022-12-08T13:23:03.764Z,100340.66
2022-12-08T13:26:10.489Z,100333.38
2022-12-08T13:29:15.122Z,100338.72
2022-12-08T13:31:50.132Z,100337.69
2022-12-08T13:34:26.430Z,100333.72
2022-12-08T13:37:18.865Z,100340.63
2022-12-08T13:39:52.379Z,100331.03
2022-12-08T13:42:26.141Z,100334.78
2022-12-08T13:45:24.235Z,100336.59
2022-12-08T13:53:00.039Z,100327.31
2022-12-08T13:57:05.180Z,100317.94
2022-12-08T13:59:34.107Z,100310.72
2022-12-08T14:02:13.315Z,100318.50
2022-12-08T14:05:17.042Z,100316.22
2022-12-08T14:07:36.562Z,100314.13
2022-12-08T14:10:08.591Z,100314.44
2022-12-08T14:12:38.378Z,100319.34
2022-12-08T14:15:09.145Z,100315.84
2022-12-08T14:17:42.032Z,100317.81
2022-12-08T14:20:24.512Z,100315.44
2022-12-08T14:22:54.037Z,100321.00
2022-12-08T14:25:24.322Z,100319.38
2022-12-08T14:28:00.678Z,100329.34
2022-12-08T14:30:32.816Z,100322.09
2022-12-08T14:33:05.288Z,100320.84
2022-12-08T14:35:35.598Z,100325.59
2022-12-08T14:38:06.122Z,100320.00
2022-12-08T14:40:36.978Z,100323.84
2022-12-08T14:43:19.337Z,100320.41
2022-12-08T14:45:53.699Z,100324.13
2022-12-08T14:48:26.909Z,100320.59
2022-12-08T14:51:06.622Z,100316.41
2022-12-08T14:53:40.659Z,100321.94
2022-12-08T14:56:15.297Z,100320.75
2022-12-08T14:58:43.929Z,100323.94
2022-12-08T15:01:17.125Z,100311.00
2022-12-08T15:03:51.276Z,100300.38
2022-12-08T15:06:23.331Z,100317.09
2022-12-08T15:08:58.861Z,100316.25
2022-12-08T15:11:36.120Z,100307.34
2022-12-08T15:14:05.257Z,100308.31
2022-12-08T15:16:40.963Z,100300.97
2022-12-08T15:19:28.547Z,100310.31
2022-12-08T15:21:59.791Z,100316.19
2022-12-08T15:24:31.329Z,100313.06
2022-12-08T15:27:00.012Z,100320.47
2022-12-08T15:29:30.971Z,100320.59
2022-12-08T15:32:02.171Z,100313.22
2022-12-08T15:34:32.705Z,100315.38
2022-12-08T15:37:01.352Z,100312.50
2022-12-08T15:39:33.685Z,100316.56
2022-12-08T15:42:03.205Z,100319.00
2022-12-08T15:44:32.990Z,100309.72
2022-12-08T15:47:02.217Z,100321.50
2022-12-08T15:49:32.351Z,100321.91
2022-12-08T15:52:11.307Z,100315.69
2022-12-08T15:54:40.342Z,100310.84
2022-12-08T15:57:21.565Z,100314.06
2022-12-08T15:59:54.603Z,100312.94
2022-12-08T16:02:25.247Z,100315.53
2022-12-08T16:07:44.142Z,100319.44
2022-12-08T16:10:18.422Z,100313.78
2022-12-08T16:16:00.240Z,100318.09
2022-12-08T16:18:32.640Z,100315.94
2022-12-08T16:23:52.241Z,100317.72
2022-12-08T16:27:06.822Z,100313.38
2022-12-08T16:29:19.752Z,100309.31
2022-12-08T16:31:48.805Z,100313.78
2022-12-08T16:34:17.530Z,100314.44
2022-12-08T16:36:47.558Z,100313.84
2022-12-08T16:39:16.190Z,100316.25
2022-12-08T16:42:02.230Z,100311.50
2022-12-08T16:44:30.849Z,100312.97
2022-12-08T16:46:59.444Z,100311.88
2022-12-08T16:49:28.032Z,100311.66
2022-12-08T16:51:58.028Z,100314.88
2022-12-08T16:54:26.616Z,100321.84
2022-12-08T16:56:55.245Z,100326.59
2022-12-08T16:59:23.896Z,100324.44
2022-12-08T17:01:52.544Z,100320.28
2022-12-08T17:04:37.200Z,100315.88
2022-12-08T17:07:07.238Z,100315.16
2022-12-08T17:09:36.028Z,100315.47
2022-12-08T17:12:04.712Z,100321.69
2022-12-08T17:14:35.510Z,100324.81
2022-12-08T17:17:04.449Z,100321.38
2022-12-08T17:19:33.252Z,100328.34
2022-12-08T17:22:03.267Z,100330.31
2022-12-08T17:24:33.355Z,100331.38
2022-12-08T17:27:04.100Z,100333.06
2022-12-08T17:29:33.053Z,100331.94
2022-12-08T17:32:01.890Z,100328.00
2022-12-08T17:34:30.573Z,100326.72
2022-12-08T17:36:59.219Z,100332.84
2022-12-08T17:39:27.989Z,100323.75
2022-12-08T17:41:57.994Z,100324.88
2022-12-08T17:44:28.187Z,100320.25
2022-12-08T17:46:56.848Z,100318.56
2022-12-08T17:49:29.559Z,100321.94
2022-12-08T17:52:01.820Z,100321.88
2022-12-08T17:54:31.065Z,100316.72
2022-12-08T17:57:01.191Z,100322.63
2022-12-08T17:59:30.152Z,100317.63
2022-12-08T18:01:59.747Z,100322.75
2022-12-08T18:04:29.027Z,100322.38
2022-12-08T18:06:59.430Z,100322.38
2022-12-08T18:09:28.181Z,100317.72
2022-12-08T18:11:56.854Z,100320.78
2022-12-08T18:14:26.907Z,100320.94
2022-12-08T18:16:55.935Z,100316.22
2022-12-08T18:19:24.739Z,100317.63
2022-12-08T18:21:53.367Z,100320.63
2022-12-08T18:24:23.935Z,100319.47
2022-12-08T18:26:52.943Z,100322.59
2022-12-08T18:29:22.597Z,100308.94
2022-12-08T18:31:53.082Z,100319.47
2022-12-08T18:34:21.959Z,100320.41
2022-12-08T18:36:50.575Z,100312.25
2022-12-08T18:39:24.722Z,100312.50
2022-12-08T18:41:53.888Z,100317.22
2022-12-08T18:44:22.887Z,100318.06
2022-12-08T18:46:52.925Z,100319.53
2022-12-08T18:49:22.080Z,100315.22
2022-12-08T18:51:50.689Z,100317.44
2022-12-08T18:54:22.129Z,100321.41
2022-12-08T18:56:56.335Z,100318.19
2022-12-08T18:59:24.996Z,100321.50
2022-12-08T19:01:55.012Z,100323.88
2022-12-08T19:04:34.681Z,100328.41
2022-12-08T19:07:06.411Z,100330.78
2022-12-08T19:09:35.031Z,100330.19
2022-12-08T19:12:03.655Z,100332.88
2022-12-08T19:14:33.525Z,100336.16
2022-12-08T19:17:03.729Z,100346.44
2022-12-08T19:19:32.381Z,100334.31
2022-12-08T19:22:00.985Z,100328.94
2022-12-08T19:24:29.805Z,100330.97
2022-12-08T19:26:58.459Z,100334.59
2022-12-08T19:29:27.134Z,100327.88
2022-12-08T19:31:56.050Z,100327.44
2022-12-08T19:34:26.370Z,100327.31
2022-12-08T19:36:54.967Z,100323.88
2022-12-08T19:39:42.590Z,100325.91
2022-12-08T19:42:35.979Z,100324.69
2022-12-08T19:45:11.851Z,100327.28
2022-12-08T19:47:41.458Z,100336.38
2022-12-08T19:50:32.286Z,100332.78
2022-12-08T19:53:01.350Z,100331.50
2022-12-08T19:55:30.511Z,100333.53
2022-12-08T19:57:59.829Z,100327.91
2022-12-08T20:00:29.285Z,100329.50
2022-12-08T20:02:58.503Z,100336.38
2022-12-08T20:05:29.288Z,100329.38
2022-12-08T20:07:58.175Z,100337.28
2022-12-08T20:10:29.341Z,100335.75
2022-12-08T20:13:12.196Z,100335.16
2022-12-08T20:15:40.948Z,100332.63
2022-12-08T20:18:09.713Z,100333.63
2022-12-08T20:20:41.027Z,100332.88
2022-12-08T20:23:09.740Z,100332.56
2022-12-08T20:25:39.891Z,100346.22
2022-12-08T20:28:08.750Z,100340.97
2022-12-08T20:30:38.805Z,100337.47
2022-12-08T20:33:07.522Z,100340.25
2022-12-08T20:35:36.189Z,100348.88
2022-12-08T20:38:06.189Z,100339.19
2022-12-08T20:40:34.851Z,100339.88
2022-12-08T20:43:03.544Z,100343.47
2022-12-08T20:45:32.158Z,100351.50
2022-12-08T20:48:01.023Z,100342.63
2022-12-08T20:50:29.885Z,100336.38
2022-12-08T20:52:58.821Z,100345.09
2022-12-08T20:55:28.947Z,100349.44
2022-12-08T20:57:57.670Z,100336.81
2022-12-08T21:00:27.937Z,100344.59
2022-12-08T21:02:57.461Z,100347.97
2022-12-08T21:05:26.465Z,100350.19
2022-12-08T21:07:55.426Z,100343.56
2022-12-08T21:10:24.331Z,100349.34
2022-12-08T21:12:54.444Z,100349.72
2022-12-08T21:15:23.291Z,100349.72
2022-12-08T21:17:52.162Z,100350.66
2022-12-08T21:20:20.856Z,100346.13
2022-12-08T21:22:49.707Z,100355.09
2022-12-08T21:25:18.696Z,100353.22
2022-12-08T21:27:47.473Z,100357.31
2022-12-08T21:30:18.130Z,100348.91
2022-12-08T21:32:46.932Z,100349.91
2022-12-08T21:35:15.746Z,100343.94
2022-12-08T21:37:44.445Z,100348.03
2022-12-08T21:40:14.147Z,100347.22
2022-12-08T21:42:45.064Z,100348.03
2022-12-08T21:45:17.275Z,100344.75
2022-12-08T21:47:48.108Z,100354.63
2022-12-08T21:50:17.673Z,100343.63
2022-12-08T21:52:48.624Z,100344.22
2022-12-08T21:55:19.135Z,100342.84
2022-12-08T21:57:48.183Z,100345.53
2022-12-08T22:00:19.930Z,100344.06
2022-12-08T22:02:48.903Z,100342.97
2022-12-08T22:05:18.026Z,100340.09
2022-12-08T22:07:46.725Z,100342.97
2022-12-08T22:10:15.767Z,100339.13
2022-12-08T22:12:44.700Z,100333.16
2022-12-08T22:15:14.135Z,100340.56
2022-12-08T22:17:45.156Z,100337.34
2022-12-08T22:20:16.072Z,100338.25
2022-12-08T22:22:46.054Z,100349.44
2022-12-08T22:25:15.340Z,100339.97
2022-12-08T22:27:44.404Z,100346.00
2022-12-08T22:30:13.570Z,100342.13
2022-12-08T22:32:43.775Z,100345.66
2022-12-08T22:35:12.777Z,100340.03
2022-12-08T22:37:41.524Z,100341.97
2022-12-08T22:40:11.716Z,100342.47
2022-12-08T22:42:40.781Z,100337.75
2022-12-08T22:45:10.961Z,100337.59
2022-12-08T22:47:39.704Z,100340.03
2022-12-08T22:50:11.110Z,100348.75
2022-12-08T22:52:40.208Z,100346.38
2022-12-08T22:55:09.974Z,100345.00
2022-12-08T22:57:38.778Z,100340.34
2022-12-08T23:00:11.641Z,100328.81
2022-12-08T23:02:40.809Z,100335.31
2022-12-08T23:05:11.757Z,100324.53
2022-12-08T23:07:41.337Z,100327.59
2022-12-08T23:10:12.175Z,100321.72
2022-12-08T23:12:40.977Z,100327.38
2022-12-08T23:15:10.593Z,100323.47
2022-12-08T23:17:39.368Z,100331.25
2022-12-08T23:20:10.959Z,100327.97
2022-12-08T23:22:39.856Z,100325.94
2022-12-08T23:25:09.518Z,100326.19
2022-12-08T23:27:38.670Z,100331.56
2022-12-08T23:30:08.791Z,100331.47
2022-12-08T23:32:37.845Z,100333.69
2022-12-08T23:35:07.981Z,100337.31
2022-12-08T23:37:38.347Z,100335.81
2022-12-08T23:40:08.825Z,100338.16
2022-12-08T23:42:37.693Z,100335.69
2022-12-08T23:45:08.498Z,100330.50
2022-12-08T23:47:37.524Z,100341.19
2022-12-08T23:50:07.974Z,100338.03
2022-12-08T23:52:39.760Z,100330.84
2022-12-08T23:55:09.559Z,100327.22
2022-12-08T23:57:39.124Z,100330.66
